createdAt,value
2022-08-09T00:01:43.157Z,71.60
2022-08-09T00:04:25.068Z,71.70
2022-08-09T00:07:03.564Z,71.80
2022-08-09T00:09:35.866Z,71.70
2022-08-09T00:12:06.053Z,71.80
2022-08-09T00:14:36.407Z,71.90
2022-08-09T00:18:06.019Z,71.90
2022-08-09T00:19:59.162Z,71.90
2022-08-09T00:22:35.094Z,72.00
2022-08-09T00:25:08.343Z,71.90
2022-08-09T00:27:42.959Z,72.10
2022-08-09T00:30:25.750Z,72.20
2022-08-09T00:32:56.095Z,72.00
2022-08-09T00:35:29.645Z,72.30
2022-08-09T00:38:12.523Z,72.50
2022-08-09T00:40:40.820Z,72.60
2022-08-09T00:44:20.664Z,72.70
2022-08-09T00:46:10.100Z,72.90
2022-08-09T00:48:39.644Z,73.10
2022-08-09T00:51:10.368Z,73.20
2022-08-09T00:53:40.262Z,73.30
2022-08-09T00:56:09.877Z,73.30
2022-08-09T00:58:38.240Z,73.20
2022-08-09T01:01:15.832Z,73.30
2022-08-09T01:03:54.995Z,73.30
2022-08-09T01:06:53.331Z,73.40
2022-08-09T01:09:36.469Z,73.50
2022-08-09T01:12:12.697Z,73.60
2022-08-09T01:14:52.424Z,73.80
2022-08-09T01:17:26.099Z,73.90
2022-08-09T01:20:04.797Z,74.00
2022-08-09T01:22:54.885Z,74.00
2022-08-09T01:25:41.468Z,74.20
2022-08-09T01:28:12.602Z,74.20
2022-08-09T01:30:52.323Z,74.40
2022-08-09T01:33:24.801Z,74.50
2022-08-09T01:36:02.583Z,74.60
2022-08-09T01:38:38.603Z,74.80
2022-08-09T01:41:13.212Z,75.00
2022-08-09T01:43:51.975Z,75.10
2022-08-09T01:46:24.001Z,74.90
2022-08-09T01:48:55.297Z,75.20
2022-08-09T01:51:26.194Z,75.30
2022-08-09T01:53:57.968Z,75.40
2022-08-09T01:56:28.052Z,75.50
2022-08-09T01:59:00.050Z,75.70
2022-08-09T02:01:58.304Z,76.10
2022-08-09T02:04:20.973Z,76.30
2022-08-09T02:07:17.770Z,76.30
2022-08-09T02:09:59.422Z,76.60
2022-08-09T02:12:35.886Z,76.90
2022-08-09T02:15:08.566Z,77.10
2022-08-09T02:18:00.822Z,77.30
2022-08-09T02:20:42.571Z,77.30
2022-08-09T02:23:18.720Z,77.60
2022-08-09T02:25:52.987Z,77.80
2022-08-09T02:28:31.179Z,77.80
2022-08-09T02:31:05.896Z,77.70
2022-08-09T02:33:38.096Z,78.00
2022-08-09T02:36:10.507Z,78.30
2022-08-09T02:38:48.859Z,78.40
2022-08-09T02:41:21.531Z,78.50
2022-08-09T02:43:55.487Z,78.40
2022-08-09T02:46:28.810Z,78.50
2022-08-09T02:49:08.730Z,78.70
2022-08-09T02:51:42.362Z,78.70
2022-08-09T02:54:14.122Z,78.80
2022-08-09T02:56:48.639Z,79.10
2022-08-09T02:59:25.912Z,79.10
2022-08-09T03:02:09.809Z,79.10
2022-08-09T03:04:42.683Z,79.10
2022-08-09T03:07:14.530Z,79.10
2022-08-09T03:09:53.851Z,79.00
2022-08-09T03:12:24.542Z,79.20
2022-08-09T03:14:57.704Z,79.60
2022-08-09T03:17:29.645Z,79.70
2022-08-09T03:20:03.214Z,80.00
2022-08-09T03:22:41.555Z,80.00
2022-08-09T03:25:26.159Z,80.60
2022-08-09T03:28:11.269Z,80.90
2022-08-09T03:30:40.043Z,81.20
2022-08-09T03:33:18.661Z,81.60
2022-08-09T03:36:13.347Z,82.80
2022-08-09T03:38:45.479Z,82.30
2022-08-09T03:41:16.327Z,82.30
2022-08-09T03:44:04.055Z,82.40
2022-08-09T03:46:37.486Z,82.60
2022-08-09T03:49:09.846Z,82.90
2022-08-09T03:51:54.124Z,82.90
2022-08-09T03:54:31.825Z,83.00
2022-08-09T03:57:04.293Z,82.80
2022-08-09T03:59:52.793Z,82.80
2022-08-09T04:02:26.238Z,82.90
2022-08-09T04:04:58.675Z,83.00
2022-08-09T04:07:47.672Z,83.00
2022-08-09T04:10:18.185Z,83.10
2022-08-09T04:12:55.285Z,83.30
2022-08-09T04:15:39.258Z,83.30
2022-08-09T04:18:18.111Z,83.40
2022-08-09T04:20:49.321Z,83.30
2022-08-09T04:23:24.282Z,83.20
2022-08-09T04:25:53.741Z,83.40
2022-08-09T04:28:33.367Z,83.50
2022-08-09T04:31:08.132Z,83.30
2022-08-09T04:33:47.733Z,83.20
2022-08-09T04:36:24.217Z,83.10
2022-08-09T04:38:55.843Z,83.10
2022-08-09T04:41:32.175Z,82.80
2022-08-09T04:44:06.843Z,82.50
2022-08-09T04:46:59.038Z,82.60
2022-08-09T04:49:53.792Z,82.50
2022-08-09T04:52:27.663Z,82.60
2022-08-09T04:54:56.884Z,82.70
2022-08-09T04:57:25.353Z,82.70
2022-08-09T04:59:55.667Z,82.90
2022-08-09T05:02:27.195Z,82.70
2022-08-09T05:04:56.463Z,82.40
2022-08-09T05:07:31.949Z,82.40
2022-08-09T05:10:01.639Z,82.50
2022-08-09T05:12:32.794Z,82.70
2022-08-09T05:15:11.900Z,82.60
2022-08-09T05:18:38.986Z,82.60
2022-08-09T05:20:40.551Z,82.90
2022-08-09T05:23:56.560Z,82.80
2022-08-09T05:25:58.374Z,82.80
2022-08-09T05:28:27.251Z,82.90
2022-08-09T05:30:55.285Z,82.90
2022-08-09T05:33:26.500Z,82.80
2022-08-09T05:36:01.785Z,82.70
2022-08-09T05:38:32.176Z,83.00
2022-08-09T05:41:02.979Z,82.80
2022-08-09T05:43:38.172Z,82.70
2022-08-09T05:46:08.799Z,82.70
2022-08-09T05:48:39.118Z,82.80
2022-08-09T05:51:30.270Z,83.00
2022-08-09T05:53:58.191Z,83.20
2022-08-09T05:56:28.323Z,83.90
2022-08-09T05:58:58.545Z,83.50
2022-08-09T06:01:34.204Z,83.70
2022-08-09T06:04:12.307Z,83.70
2022-08-09T06:06:46.858Z,83.60
2022-08-09T06:09:23.270Z,83.00
2022-08-09T06:12:08.081Z,82.50
2022-08-09T06:14:37.076Z,82.20
2022-08-09T06:17:09.390Z,81.80
2022-08-09T06:19:40.971Z,81.50
2022-08-09T06:22:15.550Z,81.00
2022-08-09T06:24:45.177Z,80.80
2022-08-09T06:30:13.993Z,80.00
2022-08-09T06:33:00.136Z,79.70
2022-08-09T06:35:55.976Z,79.50
2022-08-09T06:38:19.591Z,78.70
2022-08-09T06:41:01.506Z,78.50
2022-08-09T06:43:34.207Z,77.90
2022-08-09T06:46:06.284Z,78.50
2022-08-09T06:48:36.184Z,77.70
2022-08-09T06:51:12.389Z,77.10
2022-08-09T06:53:42.944Z,76.20
2022-08-09T06:56:14.709Z,76.30
2022-08-09T07:00:48.976Z,75.10
2022-08-09T07:01:53.560Z,74.90
2022-08-09T07:04:20.129Z,73.50
2022-08-09T07:06:53.297Z,73.00
2022-08-09T07:09:57.374Z,72.90
2022-08-09T07:12:18.231Z,72.50
2022-08-09T07:14:53.458Z,71.70
2022-08-09T07:17:22.159Z,71.80
2022-08-09T07:19:50.894Z,71.00
2022-08-09T07:22:34.372Z,71.40
2022-08-09T07:25:05.508Z,70.50
2022-08-09T07:27:42.904Z,70.40
2022-08-09T07:30:24.609Z,69.80
2022-08-09T07:32:54.852Z,69.20
2022-08-09T07:35:25.679Z,69.50
2022-08-09T07:37:59.172Z,69.00
2022-08-09T07:40:37.351Z,69.00
2022-08-09T07:43:17.449Z,68.70
2022-08-09T07:45:45.509Z,68.70
2022-08-09T07:48:25.889Z,68.60
2022-08-09T07:51:10.074Z,68.40
2022-08-09T07:54:04.742Z,68.40
2022-08-09T07:56:49.766Z,68.30
2022-08-09T07:59:25.412Z,68.00
2022-08-09T08:02:09.507Z,67.60
2022-08-09T08:04:38.942Z,67.50
2022-08-09T08:07:27.210Z,67.30
2022-08-09T08:10:08.127Z,66.70
2022-08-09T08:12:43.409Z,66.60
2022-08-09T08:15:16.869Z,66.30
2022-08-09T08:17:54.437Z,66.40
2022-08-09T08:20:28.965Z,66.40
2022-08-09T08:23:01.640Z,66.10
2022-08-09T08:25:44.602Z,66.20
2022-08-09T08:28:15.555Z,66.00
2022-08-09T08:30:50.571Z,65.60
2022-08-09T08:33:23.059Z,65.40
2022-08-09T08:35:59.708Z,65.30
2022-08-09T08:38:29.480Z,65.20
2022-08-09T08:41:01.541Z,64.30
2022-08-09T08:43:33.897Z,63.70
2022-08-09T08:46:24.895Z,64.60
2022-08-09T08:48:57.989Z,63.60
2022-08-09T08:51:27.197Z,63.40
2022-08-09T08:54:11.756Z,63.00
2022-08-09T08:56:48.802Z,63.10
2022-08-09T08:59:20.551Z,63.30
2022-08-09T09:01:57.043Z,62.70
2022-08-09T09:04:29.735Z,62.30
2022-08-09T09:07:12.723Z,62.20
2022-08-09T09:10:01.852Z,62.80
2022-08-09T09:12:35.719Z,61.90
2022-08-09T09:15:06.582Z,61.20
2022-08-09T09:17:49.378Z,61.50
2022-08-09T09:20:21.755Z,60.80
2022-08-09T09:22:55.508Z,60.00
2022-08-09T09:26:01.158Z,59.70
2022-08-09T09:29:01.762Z,59.00
2022-08-09T09:31:17.303Z,59.20
2022-08-09T09:34:18.555Z,59.00
2022-08-09T09:36:53.846Z,58.70
2022-08-09T09:39:42.522Z,58.80
2022-08-09T09:42:30.762Z,58.70
2022-08-09T09:45:00.755Z,58.60
2022-08-09T09:47:32.908Z,59.00
2022-08-09T09:50:15.771Z,59.40
2022-08-09T09:52:54.196Z,59.50
2022-08-09T09:55:32.308Z,58.70
2022-08-09T09:58:16.444Z,58.90
2022-08-09T10:00:54.615Z,57.70
2022-08-09T10:03:42.359Z,58.10
2022-08-09T10:06:13.611Z,57.90
2022-08-09T10:08:54.216Z,57.50
2022-08-09T10:12:01.446Z,57.20
2022-08-09T10:14:27.749Z,56.40
2022-08-09T10:17:17.228Z,56.00
2022-08-09T10:19:53.006Z,56.30
2022-08-09T10:22:34.491Z,56.40
2022-08-09T10:25:11.081Z,55.20
2022-08-09T10:27:45.521Z,55.80
2022-08-09T10:33:29.704Z,55.30
2022-08-09T10:36:02.331Z,54.20
2022-08-09T10:38:54.834Z,53.10
2022-08-09T10:41:21.241Z,52.60
2022-08-09T10:43:59.661Z,53.10
2022-08-09T10:46:55.657Z,53.40
2022-08-09T10:49:49.974Z,53.70
2022-08-09T10:52:35.903Z,54.40
2022-08-09T10:55:25.628Z,54.30
2022-08-09T10:57:55.880Z,53.30
2022-08-09T11:03:02.999Z,52.90
2022-08-09T11:03:51.508Z,52.70
2022-08-09T11:06:26.101Z,52.90
2022-08-09T11:08:55.028Z,52.80
2022-08-09T11:12:12.299Z,52.90
2022-08-09T11:14:44.604Z,52.40
2022-08-09T11:17:56.818Z,53.10
2022-08-09T11:20:44.854Z,51.80
2022-08-09T11:23:15.034Z,51.80
2022-08-09T11:25:49.562Z,52.30
2022-08-09T11:28:54.139Z,53.00
2022-08-09T11:31:49.549Z,52.60
2022-08-09T11:34:43.808Z,52.40
2022-08-09T11:37:24.305Z,52.50
2022-08-09T11:40:03.964Z,53.10
2022-08-09T11:42:57.237Z,53.40
2022-08-09T11:45:42.479Z,53.60
2022-08-09T11:48:24.955Z,53.60
2022-08-09T11:52:48.465Z,53.40
2022-08-09T11:54:14.638Z,53.70
2022-08-09T11:57:16.526Z,54.00
2022-08-09T11:59:56.430Z,53.90
2022-08-09T12:02:37.413Z,52.90
2022-08-09T12:05:17.680Z,53.90
2022-08-09T12:07:52.621Z,53.90
2022-08-09T12:10:38.615Z,54.10
2022-08-09T12:14:08.352Z,53.60
2022-08-09T12:16:01.549Z,53.40
2022-08-09T12:18:33.696Z,53.60
2022-08-09T12:21:03.745Z,53.50
2022-08-09T12:24:06.321Z,53.20
2022-08-09T12:26:44.874Z,53.30
2022-08-09T12:29:43.979Z,53.60
2022-08-09T12:32:27.191Z,53.50
2022-08-09T12:35:02.916Z,53.20
2022-08-09T12:37:33.588Z,52.40
2022-08-09T12:40:20.339Z,52.30
2022-08-09T12:42:50.118Z,51.80
2022-08-09T12:45:33.736Z,51.30
2022-08-09T12:48:07.963Z,52.40
2022-08-09T12:50:51.392Z,52.00
2022-08-09T12:53:32.190Z,51.70
2022-08-09T12:56:34.842Z,51.60
2022-08-09T12:59:12.096Z,52.50
2022-08-09T13:01:48.981Z,51.30
2022-08-09T13:04:36.273Z,51.60
2022-08-09T13:07:16.189Z,50.90
2022-08-09T13:09:55.784Z,50.70
2022-08-09T13:12:29.571Z,50.70
2022-08-09T13:15:07.121Z,50.90
2022-08-09T13:18:03.126Z,50.40
2022-08-09T13:20:37.133Z,50.40
2022-08-09T13:24:07.238Z,50.70
2022-08-09T13:26:10.035Z,49.80
2022-08-09T13:28:39.626Z,50.00
2022-08-09T13:32:15.121Z,49.80
2022-08-09T13:33:58.164Z,49.60
2022-08-09T13:36:40.633Z,49.70
2022-08-09T13:41:17.151Z,48.40
2022-08-09T13:42:03.210Z,49.10
2022-08-09T13:44:32.466Z,49.20
2022-08-09T13:47:29.673Z,49.10
2022-08-09T13:49:57.237Z,48.00
2022-08-09T13:52:29.558Z,47.90
2022-08-09T13:55:05.016Z,47.80
2022-08-09T13:57:40.516Z,47.80
2022-08-09T14:00:12.997Z,48.10
2022-08-09T14:03:03.663Z,47.90
2022-08-09T14:05:58.267Z,47.80
2022-08-09T14:08:19.422Z,47.30
2022-08-09T14:10:52.972Z,46.90
2022-08-09T14:13:28.453Z,46.70
2022-08-09T14:16:13.756Z,45.70
2022-08-09T14:18:45.781Z,46.30
2022-08-09T14:21:22.721Z,46.10
2022-08-09T14:23:57.329Z,45.00
2022-08-09T14:26:33.520Z,45.10
2022-08-09T14:29:07.599Z,45.10
2022-08-09T14:31:54.085Z,44.70
2022-08-09T14:34:32.324Z,45.50
2022-08-09T14:37:06.011Z,45.50
2022-08-09T14:39:45.111Z,45.60
2022-08-09T14:42:32.159Z,46.00
2022-08-09T14:46:39.033Z,46.20
2022-08-09T14:47:58.575Z,46.30
2022-08-09T14:50:29.081Z,46.00
2022-08-09T14:52:57.659Z,46.70
2022-08-09T14:55:29.286Z,46.60
2022-08-09T14:58:05.436Z,46.70
2022-08-09T15:00:36.656Z,46.90
2022-08-09T15:03:06.944Z,47.20
2022-08-09T15:05:36.615Z,47.10
2022-08-09T15:08:05.243Z,46.90
2022-08-09T15:10:34.010Z,46.60
2022-08-09T15:13:05.237Z,46.70
2022-08-09T15:15:39.291Z,47.40
2022-08-09T15:18:14.203Z,46.90
2022-08-09T15:21:57.311Z,46.40
2022-08-09T15:24:00.920Z,46.00
2022-08-09T15:26:28.476Z,46.00
2022-08-09T15:29:02.499Z,46.30
2022-08-09T15:31:41.518Z,46.20
2022-08-09T15:34:31.681Z,46.20
2022-08-09T15:37:04.175Z,46.40
2022-08-09T15:39:34.789Z,46.00
2022-08-09T15:42:12.121Z,46.30
2022-08-09T15:44:44.290Z,46.60
2022-08-09T15:47:14.261Z,46.70
2022-08-09T15:50:03.405Z,46.80
2022-08-09T15:52:34.111Z,47.00
2022-08-09T15:55:02.551Z,46.40
2022-08-09T15:57:35.798Z,46.10
2022-08-09T16:00:25.689Z,45.70
2022-08-09T16:02:56.797Z,45.70
2022-08-09T16:05:47.173Z,46.00
2022-08-09T16:08:30.465Z,45.70
2022-08-09T16:11:01.249Z,45.60
2022-08-09T16:14:04.238Z,45.70
2022-08-09T16:16:28.069Z,45.80
2022-08-09T16:18:56.528Z,45.90
2022-08-09T16:21:26.174Z,46.00
2022-08-09T16:23:58.293Z,46.00
2022-08-09T16:26:34.759Z,45.90
2022-08-09T16:29:11.055Z,45.70
2022-08-09T16:32:20.020Z,45.90
2022-08-09T16:34:56.152Z,46.00
2022-08-09T16:37:50.618Z,45.90
2022-08-09T16:40:09.902Z,45.60
2022-08-09T16:42:39.236Z,45.70
2022-08-09T16:45:14.356Z,45.90
2022-08-09T16:48:40.997Z,46.10
2022-08-09T16:50:38.370Z,45.80
2022-08-09T16:53:08.881Z,46.10
2022-08-09T16:55:57.881Z,46.10
2022-08-09T16:58:26.357Z,45.90
2022-08-09T17:00:54.885Z,45.80
2022-08-09T17:03:24.716Z,46.00
2022-08-09T17:06:03.477Z,46.00
2022-08-09T17:08:43.946Z,46.90
2022-08-09T17:11:33.079Z,46.20
2022-08-09T17:14:08.357Z,45.90
2022-08-09T17:16:53.466Z,45.90
2022-08-09T17:19:23.087Z,46.00
2022-08-09T17:21:55.411Z,45.90
2022-08-09T17:24:27.606Z,46.20
2022-08-09T17:26:58.543Z,46.20
2022-08-09T17:29:31.584Z,45.60
2022-08-09T17:32:01.964Z,45.50
2022-08-09T17:35:04.430Z,45.50
2022-08-09T17:37:21.156Z,45.70
2022-08-09T17:39:53.796Z,45.00
2022-08-09T17:42:41.234Z,45.60
2022-08-09T17:45:16.095Z,45.70
2022-08-09T17:48:02.452Z,45.40
2022-08-09T17:50:36.661Z,45.50
2022-08-09T17:53:19.829Z,45.30
2022-08-09T17:55:55.759Z,45.40
2022-08-09T17:58:28.299Z,45.20
2022-08-09T18:00:58.583Z,45.20
2022-08-09T18:03:30.428Z,46.00
2022-08-09T18:06:01.900Z,45.70
2022-08-09T18:08:30.481Z,45.80
2022-08-09T18:11:02.359Z,46.00
2022-08-09T18:13:43.478Z,46.10
2022-08-09T18:16:30.192Z,46.30
2022-08-09T18:19:03.955Z,46.50
2022-08-09T18:21:50.265Z,46.80
2022-08-09T18:24:20.797Z,47.00
2022-08-09T18:26:55.466Z,47.30
2022-08-09T18:30:40.885Z,47.40
2022-08-09T18:32:13.624Z,47.70
2022-08-09T18:34:43.361Z,48.50
2022-08-09T18:37:49.070Z,48.60
2022-08-09T18:40:01.297Z,48.80
2022-08-09T18:42:29.742Z,49.30
2022-08-09T18:45:01.043Z,49.60
2022-08-09T18:47:32.743Z,49.90
2022-08-09T18:50:09.922Z,50.30
2022-08-09T18:52:41.427Z,50.60
2022-08-09T18:55:13.684Z,51.00
2022-08-09T18:57:44.518Z,51.30
2022-08-09T19:00:20.117Z,51.60
2022-08-09T19:02:50.826Z,51.90
2022-08-09T19:05:49.119Z,52.20
2022-08-09T19:08:13.960Z,52.40
2022-08-09T19:10:47.809Z,52.60
2022-08-09T19:13:20.114Z,53.50
2022-08-09T19:15:52.386Z,53.10
2022-08-09T19:18:33.756Z,53.30
2022-08-09T19:21:09.270Z,53.60
2022-08-09T19:24:32.489Z,53.70
2022-08-09T19:26:32.348Z,54.00
2022-08-09T19:29:09.696Z,54.10
2022-08-09T19:31:51.125Z,54.30
2022-08-09T19:34:22.880Z,54.30
2022-08-09T19:36:53.205Z,54.30
2022-08-09T19:39:29.264Z,54.40
2022-08-09T19:42:14.899Z,54.70
2022-08-09T19:44:43.933Z,54.70
2022-08-09T19:47:23.025Z,54.80
2022-08-09T19:50:07.188Z,54.90
2022-08-09T19:52:51.757Z,55.00
2022-08-09T19:55:30.691Z,55.70
2022-08-09T19:58:16.153Z,55.30
2022-08-09T20:00:46.418Z,55.50
2022-08-09T20:04:10.847Z,55.50
2022-08-09T20:06:04.858Z,55.70
2022-08-09T20:08:51.476Z,55.80
2022-08-09T20:11:25.843Z,55.90
2022-08-09T20:13:54.980Z,55.90
2022-08-09T20:16:33.877Z,55.90
2022-08-09T20:19:47.825Z,56.00
2022-08-09T20:21:59.948Z,56.10
2022-08-09T20:24:33.903Z,56.30
2022-08-09T20:27:08.289Z,56.40
2022-08-09T20:29:38.577Z,56.50
2022-08-09T20:32:29.232Z,56.60
2022-08-09T20:34:56.216Z,56.70
2022-08-09T20:37:24.795Z,56.70
2022-08-09T20:40:16.678Z,56.80
2022-08-09T20:42:53.373Z,56.90
2022-08-09T20:46:00.357Z,57.00
2022-08-09T20:48:21.271Z,57.00
2022-08-09T20:50:55.640Z,57.00
2022-08-09T20:53:36.329Z,57.20
2022-08-09T20:56:07.192Z,57.30
2022-08-09T20:58:38.493Z,57.40
2022-08-09T21:01:32.250Z,57.50
2022-08-09T21:05:49.755Z,57.60
2022-08-09T21:06:48.105Z,57.50
2022-08-09T21:09:16.540Z,57.60
2022-08-09T21:14:40.185Z,57.80
2022-08-09T21:18:23.693Z,57.90
2022-08-09T21:20:19.007Z,58.00
2022-08-09T21:22:47.018Z,58.20
2022-08-09T21:25:38.495Z,58.20
2022-08-09T21:28:07.740Z,58.40
2022-08-09T21:30:43.255Z,58.50
2022-08-09T21:33:11.691Z,58.50
2022-08-09T21:35:51.193Z,58.60
2022-08-09T21:38:31.112Z,58.70
2022-08-09T21:41:00.234Z,58.80
2022-08-09T21:43:31.502Z,58.80
2022-08-09T21:46:17.814Z,58.80
2022-08-09T21:48:49.106Z,58.90
2022-08-09T21:51:24.426Z,59.00
2022-08-09T21:54:06.067Z,59.20
2022-08-09T21:56:44.546Z,59.20
2022-08-09T21:59:25.392Z,59.40
2022-08-09T22:02:00.648Z,59.50
2022-08-09T22:04:57.038Z,59.60
2022-08-09T22:07:35.281Z,59.70
2022-08-09T22:10:10.022Z,59.70
2022-08-09T22:12:38.892Z,59.80
2022-08-09T22:15:14.712Z,59.90
2022-08-09T22:17:47.281Z,59.90
2022-08-09T22:20:21.837Z,59.80
2022-08-09T22:22:55.889Z,59.80
2022-08-09T22:26:07.415Z,60.00
2022-08-09T22:28:12.456Z,60.20
2022-08-09T22:30:48.613Z,60.30
2022-08-09T22:33:19.509Z,60.30
2022-08-09T22:36:00.793Z,60.40
2022-08-09T22:38:31.634Z,60.50
2022-08-09T22:40:59.678Z,60.70
2022-08-09T22:44:03.602Z,60.70
2022-08-09T22:48:15.225Z,60.80
2022-08-09T22:49:10.068Z,60.80
2022-08-09T22:51:49.580Z,61.00
2022-08-09T22:54:29.324Z,61.70
2022-08-09T22:57:01.408Z,61.00
2022-08-09T22:59:57.189Z,61.10
2022-08-09T23:02:20.268Z,61.30
2022-08-09T23:04:53.794Z,61.30
2022-08-09T23:08:21.370Z,61.30
2022-08-09T23:10:29.451Z,61.60
2022-08-09T23:12:57.737Z,61.70
2022-08-09T23:15:26.318Z,61.90
2022-08-09T23:17:54.576Z,62.20
2022-08-09T23:20:26.062Z,62.50
2022-08-09T23:22:54.195Z,62.80
2022-08-09T23:25:22.536Z,63.00
2022-08-09T23:27:57.418Z,63.00
2022-08-09T23:30:38.569Z,63.30
2022-08-09T23:33:06.699Z,63.50
2022-08-09T23:36:05.093Z,63.60
2022-08-09T23:38:24.205Z,63.70
2022-08-09T23:40:52.411Z,63.80
2022-08-09T23:43:20.611Z,63.90
2022-08-09T23:45:48.721Z,63.90
2022-08-09T23:48:16.938Z,63.90
2022-08-09T23:50:46.350Z,63.90
2022-08-09T23:53:15.570Z,63.90
2022-08-09T23:55:47.269Z,63.90
2022-08-09T23:58:24.343Z,64.00
